Time;durP1;ratioP1;P1;durP2;ratioP2;P2;SDS_P1;SDS_P2;PMS_P1;PMS_P2;Temp;Humidity;BMP_temperature;BMP_pressure;BME280_temperature;BME280_humidity;BME280_pressure;Samples;Min_cycle;Max_cycle;Signal;HPM_P1;HPM_P2
2023/10/19 00:00:21;;;;;;;15.70;8.10;;;;;;;6.88;100.00;99517.94;6121464;28;20056;-69
2023/10/19 00:03:18;;;;;;;18.77;8.38;;;;;;;6.85;100.00;99508.53;6118672;28;20025;-70
2023/10/19 00:06:13;;;;;;;17.13;8.27;;;;;;;6.82;100.00;99495.66;6121455;28;20514;-70
2023/10/19 00:09:11;;;;;;;19.83;8.20;;;;;;;6.86;100.00;99499.66;6121485;28;20029;-70
2023/10/19 00:12:09;;;;;;;18.17;8.75;;;;;;;6.87;100.00;99506.59;6121969;28;20028;-70
2023/10/19 00:15:05;;;;;;;21.98;8.75;;;;;;;6.90;100.00;99505.47;6121178;28;20059;-69
2023/10/19 00:18:20;;;;;;;16.15;8.05;;;;;;;6.85;100.00;99498.00;6120979;28;20077;-69
2023/10/19 00:21:20;;;;;;;20.70;9.02;;;;;;;6.87;100.00;99501.34;6119617;28;20041;-69
2023/10/19 00:24:17;;;;;;;22.70;9.02;;;;;;;6.88;100.00;99500.34;6121042;28;20044;-69
2023/10/19 00:27:19;;;;;;;19.65;9.63;;;;;;;6.88;100.00;99481.88;6127818;28;20037;-71
2023/10/19 00:30:18;;;;;;;19.88;9.68;;;;;;;6.98;100.00;99490.56;6121033;28;20476;-68
2023/10/19 00:33:17;;;;;;;19.70;8.85;;;;;;;6.79;100.00;99456.47;6120819;28;20043;-68
2023/10/19 00:36:13;;;;;;;21.10;9.85;;;;;;;7.06;100.00;99476.59;6121475;28;20521;-69
2023/10/19 00:39:20;;;;;;;22.57;11.43;;;;;;;6.90;100.00;99440.41;6121245;28;20032;-70
2023/10/19 00:42:20;;;;;;;23.30;11.98;;;;;;;7.23;100.00;99480.19;6122712;28;20035;-70
2023/10/19 00:45:15;;;;;;;24.25;11.20;;;;;;;7.25;100.00;99459.75;6120691;28;20036;-70
2023/10/19 00:48:11;;;;;;;24.03;11.70;;;;;;;7.26;100.00;99470.13;6120971;28;20593;-70
2023/10/19 00:51:07;;;;;;;25.30;11.07;;;;;;;7.24;100.00;99471.25;6120550;28;20062;-70
2023/10/19 00:54:26;;;;;;;19.67;10.35;;;;;;;7.18;100.00;99456.88;6121044;28;20017;-72
2023/10/19 00:57:34;;;;;;;22.73;10.50;;;;;;;7.06;100.00;99442.34;6115776;28;20461;-72
2023/10/19 01:00:34;;;;;;;21.67;10.35;;;;;;;7.03;100.00;99448.75;6116504;28;20116;-71
2023/10/19 01:03:32;;;;;;;21.13;11.05;;;;;;;7.05;100.00;99449.41;6120957;28;20111;-72
2023/10/19 01:06:31;;;;;;;21.17;11.40;;;;;;;6.96;100.00;99446.84;6103704;28;20476;-72
2023/10/19 01:09:28;;;;;;;25.15;12.65;;;;;;;6.96;100.00;99450.31;6121866;28;20032;-72
2023/10/19 01:18:29;;;;;;;28.37;14.10;;;;;;;6.84;100.00;99443.66;6120411;28;20040;-72
2023/10/19 01:21:35;;;;;;;29.15;12.85;;;;;;;6.78;100.00;99440.81;6120658;28;20383;-72
2023/10/19 01:24:42;;;;;;;24.08;11.02;;;;;;;6.76;100.00;99434.88;6124124;28;20024;-73
2023/10/19 01:27:40;;;;;;;27.98;12.02;;;;;;;6.63;100.00;99422.09;6108138;28;20071;-74
2023/10/19 01:30:37;;;;;;;25.77;12.30;;;;;;;6.60;100.00;99417.16;6124881;28;20039;-72
2023/10/19 01:33:35;;;;;;;26.77;12.10;;;;;;;6.63;100.00;99423.91;6124623;28;20048;-73
2023/10/19 01:36:43;;;;;;;32.00;14.70;;;;;;;6.62;100.00;99407.28;6125042;28;20036;-74
2023/10/19 01:39:39;;;;;;;30.80;13.60;;;;;;;6.60;100.00;99398.72;6125336;28;20028;-75
2023/10/19 01:42:34;;;;;;;31.75;13.43;;;;;;;6.60;100.00;99406.59;6124522;28;20032;-75
2023/10/19 01:45:31;;;;;;;31.42;12.98;;;;;;;6.53;100.00;99381.84;6109805;28;20028;-76
2023/10/19 01:48:33;;;;;;;32.03;15.38;;;;;;;6.46;100.00;99370.28;6124240;28;20059;-77
2023/10/19 01:51:32;;;;;;;34.08;15.45;;;;;;;6.52;100.00;99367.03;6128669;28;20060;-75
2023/10/19 01:54:28;;;;;;;36.38;14.68;;;;;;;6.60;100.00;99377.63;6124074;28;20021;-77
2023/10/19 01:57:25;;;;;;;27.87;13.73;;;;;;;6.49;100.00;99360.28;6124891;28;20426;-76
2023/10/19 02:00:22;;;;;;;28.80;12.77;;;;;;;6.37;100.00;99337.78;6124109;28;20131;-78
2023/10/19 02:03:18;;;;;;;30.33;12.98;;;;;;;6.44;100.00;99359.09;6130415;28;20067;-77
2023/10/19 02:12:27;;;;;;;31.30;14.75;;;;;;;6.50;100.00;99348.75;6123931;28;21155;-75
2023/10/19 02:15:23;;;;;;;35.57;14.70;;;;;;;6.46;100.00;99315.00;6125339;28;20032;-78
2023/10/19 02:18:19;;;;;;;30.55;12.52;;;;;;;6.41;100.00;99293.56;6128305;28;20036;-77
2023/10/19 02:21:14;;;;;;;32.30;13.73;;;;;;;6.48;100.00;99305.94;6121073;28;20076;-75
2023/10/19 02:24:14;;;;;;;39.67;15.73;;;;;;;6.40;100.00;99297.16;6124386;28;20063;-75
2023/10/19 02:27:09;;;;;;;34.92;14.85;;;;;;;6.30;100.00;99270.13;6123434;28;20607;-76
2023/10/19 02:30:05;;;;;;;32.93;14.27;;;;;;;6.33;100.00;99264.56;6123867;28;20040;-75
2023/10/19 02:33:03;;;;;;;31.63;13.00;;;;;;;6.30;100.00;99259.59;6123706;28;20029;-75
2023/10/19 02:35:58;;;;;;;37.83;16.23;;;;;;;6.30;100.00;99254.34;6123843;28;20111;-76
2023/10/19 02:38:55;;;;;;;35.17;16.77;;;;;;;6.34;100.00;99255.66;6123431;28;20043;-76
2023/10/19 02:41:50;;;;;;;39.28;17.30;;;;;;;6.21;100.00;99242.94;6122946;28;20071;-74
2023/10/19 02:44:45;;;;;;;38.80;14.67;;;;;;;6.20;100.00;99235.16;6126314;28;20031;-77
2023/10/19 02:47:44;;;;;;;37.90;16.03;;;;;;;6.13;100.00;99239.41;6123309;28;20036;-75
2023/10/19 02:50:41;;;;;;;33.35;15.32;;;;;;;6.31;100.00;99266.50;6122703;28;20058;-76
2023/10/19 02:53:38;;;;;;;38.38;15.52;;;;;;;6.33;100.00;99267.19;6107439;28;20051;-77
2023/10/19 02:56:38;;;;;;;35.15;16.02;;;;;;;6.28;100.00;99251.84;6123183;28;20044;-77
2023/10/19 02:59:33;;;;;;;33.63;15.75;;;;;;;6.24;100.00;99250.50;6123344;28;20471;-76
2023/10/19 03:02:30;;;;;;;35.87;14.80;;;;;;;6.36;100.00;99269.53;6122313;28;20032;-78
2023/10/19 03:05:26;;;;;;;39.00;18.17;;;;;;;6.27;100.00;99259.91;6123047;28;20320;-75
2023/10/19 03:08:23;;;;;;;44.97;16.80;;;;;;;6.28;100.00;99259.72;6122919;28;20033;-76
2023/10/19 03:11:19;;;;;;;37.88;16.05;;;;;;;6.37;100.00;99269.34;6122317;28;20115;-75
2023/10/19 03:14:16;;;;;;;41.55;16.83;;;;;;;6.36;100.00;99264.25;6122718;28;20536;-76
2023/10/19 03:17:11;;;;;;;34.72;16.17;;;;;;;6.32;100.00;99263.72;6121936;28;20063;-75
2023/10/19 03:20:07;;;;;;;33.40;14.23;;;;;;;6.28;100.00;99251.84;6122320;28;20040;-75
2023/10/19 03:23:03;;;;;;;39.88;16.23;;;;;;;6.33;100.00;99254.03;6119799;28;20454;-77
2023/10/19 03:29:13;;;;;;;;;;;;;;;6.30;100.00;99243.81;6122857;28;20407;-75
2023/10/19 03:32:09;;;;;;;36.38;16.50;;;;;;;6.23;100.00;99238.31;6121778;28;20371;-74
2023/10/19 03:35:04;;;;;;;35.78;14.80;;;;;;;6.26;100.00;99242.44;6122136;28;20036;-77
2023/10/19 03:38:03;;;;;;;37.42;16.73;;;;;;;6.33;100.00;99248.75;6121783;28;20467;-75
2023/10/19 03:41:06;;;;;;;43.08;18.23;;;;;;;6.22;100.00;99235.84;6115313;28;20095;-76
2023/10/19 03:44:03;;;;;;;46.25;17.00;;;;;;;6.24;100.00;99239.16;6113096;28;20068;-78
2023/10/19 03:47:04;;;;;;;42.28;18.38;;;;;;;6.10;100.00;99205.50;6121279;28;20058;-77
2023/10/19 03:50:06;;;;;;;44.10;17.15;;;;;;;6.31;100.00;99240.19;6129991;28;20174;-74
2023/10/19 03:53:01;;;;;;;43.83;16.40;;;;;;;6.23;100.00;99230.44;6121542;28;20041;-75
2023/10/19 03:55:57;;;;;;;42.67;17.30;;;;;;;6.30;100.00;99233.28;6121885;28;20078;-77
2023/10/19 03:58:52;;;;;;;44.70;19.63;;;;;;;6.23;100.00;99221.69;6120835;28;20032;-75
2023/10/19 04:01:47;;;;;;;44.77;17.93;;;;;;;6.30;100.00;99225.38;6121370;28;20121;-75
2023/10/19 04:04:43;;;;;;;46.40;20.10;;;;;;;6.30;100.00;99206.94;6121917;28;20274;-75
2023/10/19 04:07:39;;;;;;;45.40;19.88;;;;;;;6.26;100.00;99197.72;6121428;28;20305;-76
2023/10/19 04:14:27;;;;;;;43.60;19.70;;;;;;;6.32;100.00;99189.19;6112846;28;20036;-75
2023/10/19 04:17:23;;;;;;;46.95;19.08;;;;;;;6.30;100.00;99192.00;6122701;28;20047;-76
2023/10/19 04:23:15;;;;;;;44.25;18.73;;;;;;;6.26;100.00;99179.28;6117913;28;20030;-76
2023/10/19 04:26:10;;;;;;;39.92;16.73;;;;;;;6.32;100.00;99189.19;6121664;28;20040;-77
2023/10/19 04:29:13;;;;;;;46.60;19.98;;;;;;;6.34;100.00;99187.22;6137291;28;20495;-74
2023/10/19 04:32:09;;;;;;;47.83;19.98;;;;;;;6.36;100.00;99190.53;6120945;28;20024;-74
2023/10/19 04:35:08;;;;;;;46.50;19.27;;;;;;;6.27;100.00;99175.69;6123756;28;20020;-77
2023/10/19 04:38:06;;;;;;;46.00;19.75;;;;;;;6.13;100.00;99149.94;6128421;28;20073;-75
2023/10/19 04:41:08;;;;;;;42.97;19.85;;;;;;;6.33;100.00;99172.44;6120494;28;20035;-76
2023/10/19 04:44:03;;;;;;;50.90;21.25;;;;;;;6.33;100.00;99180.31;6123471;28;20442;-74
2023/10/19 04:46:59;;;;;;;51.33;21.00;;;;;;;6.26;100.00;99164.31;6130456;28;20020;-76
2023/10/19 04:49:55;;;;;;;49.10;20.03;;;;;;;6.34;100.00;99169.63;6125165;28;20032;-75
2023/10/19 04:52:50;;;;;;;53.03;21.17;;;;;;;6.36;100.00;99175.53;6120210;28;20020;-74
2023/10/19 04:55:46;;;;;;;44.97;18.73;;;;;;;6.39;100.00;99179.66;6121299;28;20024;-76
2023/10/19 04:58:41;;;;;;;50.20;22.37;;;;;;;6.37;100.00;99165.84;6126067;28;20029;-76
2023/10/19 05:01:37;;;;;;;47.40;21.27;;;;;;;6.38;100.00;99167.50;6125331;28;20078;-77
2023/10/19 05:04:32;;;;;;;56.15;21.30;;;;;;;6.41;100.00;99169.84;6135195;28;20623;-75
2023/10/19 05:07:28;;;;;;;50.40;20.90;;;;;;;6.42;100.00;99172.28;6131558;28;20029;-75
2023/10/19 05:10:25;;;;;;;46.05;19.83;;;;;;;6.37;100.00;99158.78;6125355;28;20548;-77
2023/10/19 05:13:22;;;;;;;43.47;19.25;;;;;;;6.41;100.00;99164.56;6127208;28;20795;-76
2023/10/19 05:16:17;;;;;;;47.75;20.20;;;;;;;6.32;100.00;99154.97;6126083;28;20032;-73
2023/10/19 05:19:13;;;;;;;49.57;19.67;;;;;;;6.27;100.00;99144.94;6134307;28;20113;-76
2023/10/19 05:22:09;;;;;;;46.75;19.90;;;;;;;6.33;100.00;99154.00;6128952;28;20027;-76
2023/10/19 05:25:06;;;;;;;46.55;20.58;;;;;;;6.33;100.00;99159.25;6125300;28;20387;-75
2023/10/19 05:28:07;;;;;;;47.28;17.77;;;;;;;6.30;100.00;99154.31;6124906;28;20024;-75
2023/10/19 05:31:04;;;;;;;48.85;19.35;;;;;;;6.27;100.00;99144.09;6124852;28;20047;-77
2023/10/19 05:33:59;;;;;;;51.72;18.00;;;;;;;6.26;100.00;99148.53;6124830;28;20029;-77
2023/10/19 05:36:58;;;;;;;40.60;18.83;;;;;;;6.32;100.00;99157.59;6133807;28;20032;-75
2023/10/19 05:39:53;;;;;;;41.75;16.17;;;;;;;6.27;100.00;99146.72;6132311;28;20308;-74
2023/10/19 05:42:49;;;;;;;45.13;18.83;;;;;;;6.29;100.00;99155.28;6129816;28;20032;-75
2023/10/19 05:45:44;;;;;;;44.70;19.13;;;;;;;6.28;100.00;99156.25;6129083;28;20112;-74
2023/10/19 05:48:40;;;;;;;45.35;17.98;;;;;;;6.28;100.00;99158.88;6130493;28;20494;-75
2023/10/19 05:51:35;;;;;;;42.53;17.70;;;;;;;6.26;100.00;99168.75;6124014;28;20507;-74
2023/10/19 05:54:30;;;;;;;46.53;20.67;;;;;;;6.21;100.00;99158.69;6124728;28;20036;-70
2023/10/19 05:57:26;;;;;;;44.00;19.93;;;;;;;6.20;100.00;99150.94;6124056;28;20112;-75
2023/10/19 06:00:25;;;;;;;45.37;18.17;;;;;;;6.26;100.00;99163.50;6125868;28;20425;-73
2023/10/19 06:03:20;;;;;;;41.10;16.45;;;;;;;6.23;100.00;99169.06;6128702;28;20290;-73
2023/10/19 06:06:15;;;;;;;43.30;18.17;;;;;;;6.17;100.00;99159.19;6124733;28;20372;-76
2023/10/19 06:09:11;;;;;;;45.27;18.40;;;;;;;6.22;100.00;99164.81;6122516;28;20490;-74
2023/10/19 06:12:09;;;;;;;62.57;24.90;;;;;;;6.20;100.00;99161.47;6123761;28;20037;-78
2023/10/19 06:15:04;;;;;;;46.83;20.10;;;;;;;6.26;100.00;99166.13;6106699;28;20028;-76
2023/10/19 06:18:00;;;;;;;46.90;18.92;;;;;;;6.22;100.00;99156.91;6123974;28;20468;-76
2023/10/19 06:20:55;;;;;;;44.10;18.27;;;;;;;6.21;100.00;99169.22;6123363;28;20472;-76
2023/10/19 06:23:52;;;;;;;42.20;16.95;;;;;;;6.26;100.00;99179.28;6127500;28;20028;-77
2023/10/19 06:26:48;;;;;;;34.85;14.27;;;;;;;6.23;100.00;99179.59;6130534;28;20028;-74
2023/10/19 06:29:44;;;;;;;43.10;20.02;;;;;;;6.27;100.00;99173.03;6128042;28;20040;-75
2023/10/19 06:32:39;;;;;;;38.35;18.00;;;;;;;6.26;100.00;99174.00;6127700;28;20058;-74
2023/10/19 06:35:37;;;;;;;39.20;17.00;;;;;;;6.26;100.00;99174.84;6122633;28;20395;-77
2023/10/19 06:38:32;;;;;;;37.03;16.65;;;;;;;6.25;100.00;99175.03;6128197;28;20083;-75
2023/10/19 06:41:27;;;;;;;37.83;17.15;;;;;;;6.22;100.00;99162.16;6120260;28;20032;-74
2023/10/19 06:44:23;;;;;;;36.67;15.20;;;;;;;6.19;100.00;99170.38;6124098;28;20028;-76
2023/10/19 06:47:18;;;;;;;37.33;15.50;;;;;;;6.28;100.00;99172.03;6131504;28;20114;-75
2023/10/19 06:50:16;;;;;;;34.17;14.25;;;;;;;6.27;100.00;99171.25;6112815;28;20093;-74
2023/10/19 06:53:11;;;;;;;40.72;16.60;;;;;;;6.20;100.00;99150.94;6124490;28;20024;-77
2023/10/19 06:56:07;;;;;;;33.92;16.30;;;;;;;6.30;100.00;99160.41;6107136;28;20060;-75
2023/10/19 06:59:05;;;;;;;38.72;18.10;;;;;;;6.20;100.00;99138.63;6123393;28;20492;-75
2023/10/19 07:02:01;;;;;;;34.90;16.15;;;;;;;6.22;100.00;99141.13;6121290;28;20048;-75
2023/10/19 07:04:57;;;;;;;35.25;15.18;;;;;;;6.31;100.00;99148.03;6123716;28;20126;-76
2023/10/19 07:07:54;;;;;;;36.95;15.82;;;;;;;6.29;100.00;99150.00;6127366;28;20119;-74
2023/10/19 07:10:50;;;;;;;32.17;14.80;;;;;;;6.25;100.00;99146.88;6120549;28;20119;-74
2023/10/19 07:13:45;;;;;;;37.20;15.88;;;;;;;6.32;100.00;99162.88;6128885;28;20024;-74
2023/10/19 07:16:40;;;;;;;31.67;14.77;;;;;;;6.20;100.00;99122.00;6120236;28;20542;-75
2023/10/19 07:19:37;;;;;;;29.80;14.20;;;;;;;6.36;100.00;99143.16;6094817;28;20283;-74
2023/10/19 07:22:33;;;;;;;34.47;16.35;;;;;;;6.31;100.00;99135.72;6110832;28;20036;-76
2023/10/19 07:25:29;;;;;;;30.25;12.48;;;;;;;6.34;100.00;99134.56;6118885;28;20119;-72
2023/10/19 07:28:27;;;;;;;31.20;13.88;;;;;;;6.34;100.00;99129.31;6122308;28;20383;-74
2023/10/19 07:31:22;;;;;;;29.17;14.10;;;;;;;6.36;100.00;99133.44;6117666;28;20086;-75
2023/10/19 07:34:18;;;;;;;32.63;14.15;;;;;;;6.37;100.00;99136.91;6117918;28;20104;-76
2023/10/19 07:37:15;;;;;;;33.20;15.80;;;;;;;6.39;100.00;99148.09;6102933;28;20036;-75
2023/10/19 07:40:13;;;;;;;28.17;13.43;;;;;;;6.32;100.00;99131.28;6117030;28;20332;-75
2023/10/19 07:43:09;;;;;;;35.38;14.13;;;;;;;6.42;100.00;99143.34;6117207;28;20039;-75
2023/10/19 07:46:04;;;;;;;29.33;13.40;;;;;;;6.36;100.00;99140.53;6116984;28;20064;-77
2023/10/19 07:49:02;;;;;;;28.93;13.73;;;;;;;6.41;100.00;99148.78;6094756;28;20040;-75
2023/10/19 07:51:59;;;;;;;25.25;11.07;;;;;;;6.44;100.00;99151.09;6115883;28;20023;-75
2023/10/19 07:54:54;;;;;;;30.00;11.93;;;;;;;6.49;100.00;99148.81;6116902;28;20032;-76
2023/10/19 07:57:50;;;;;;;23.97;11.97;;;;;;;6.50;100.00;99137.28;6116438;28;20041;-74
2023/10/19 08:00:46;;;;;;;26.42;10.82;;;;;;;6.49;100.00;99133.00;6119707;28;20483;-73
2023/10/19 08:03:42;;;;;;;24.92;11.10;;;;;;;6.45;100.00;99121.97;6117251;28;20048;-73
2023/10/19 08:06:37;;;;;;;21.93;10.07;;;;;;;6.44;100.00;99130.03;6118232;28;20036;-75
2023/10/19 08:09:35;;;;;;;23.10;11.37;;;;;;;6.48;100.00;99139.25;6114310;28;20539;-74
2023/10/19 08:12:30;;;;;;;22.45;10.80;;;;;;;6.52;100.00;99140.59;6112132;28;20035;-76
2023/10/19 08:15:26;;;;;;;23.50;9.77;;;;;;;6.56;100.00;99141.91;6115670;28;20032;-73
2023/10/19 08:18:21;;;;;;;24.05;10.68;;;;;;;6.59;100.00;99138.97;6117339;28;20028;-74
2023/10/19 08:21:17;;;;;;;17.87;8.43;;;;;;;6.61;100.00;99142.25;6110894;28;20037;-74
2023/10/19 08:24:17;;;;;;;21.92;11.10;;;;;;;6.57;100.00;99141.75;6115960;28;20408;-73
2023/10/19 08:27:13;;;;;;;18.83;9.25;;;;;;;6.65;100.00;99148.03;6116578;28;20039;-76
2023/10/19 08:30:08;;;;;;;20.13;8.30;;;;;;;6.66;100.00;99145.22;6115405;28;20036;-73
2023/10/19 08:33:04;;;;;;;19.67;9.82;;;;;;;6.61;100.00;99134.34;6114884;28;20277;-73
2023/10/19 08:36:02;;;;;;;22.83;10.18;;;;;;;6.73;100.00;99145.41;6116127;28;20029;-74
2023/10/19 08:38:57;;;;;;;19.77;9.75;;;;;;;6.67;100.00;99125.81;6117333;28;20037;-75
2023/10/19 08:41:55;;;;;;;19.98;9.48;;;;;;;6.76;100.00;99135.41;6118115;28;20071;-74
2023/10/19 08:44:51;;;;;;;20.73;10.43;;;;;;;6.81;100.00;99138.38;6113940;28;20071;-77
2023/10/19 08:47:59;;;;;;;18.35;8.93;;;;;;;6.88;100.00;99144.63;6119271;28;20487;-75
2023/10/19 08:50:55;;;;;;;17.65;9.02;;;;;;;6.81;100.00;99122.56;6111530;28;20028;-73
2023/10/19 08:53:53;;;;;;;19.02;9.57;;;;;;;6.83;100.00;99120.59;6100470;28;20033;-75
2023/10/19 08:56:49;;;;;;;18.02;9.40;;;;;;;6.83;100.00;99115.31;6115656;28;20036;-75
2023/10/19 08:59:46;;;;;;;19.40;9.13;;;;;;;6.86;100.00;99125.53;6118201;28;20434;-75
2023/10/19 09:02:42;;;;;;;19.23;8.80;;;;;;;6.96;100.00;99120.94;6119164;28;20107;-75
2023/10/19 09:05:38;;;;;;;16.73;7.60;;;;;;;7.01;100.00;99121.25;6119701;28;20046;-74
2023/10/19 09:08:39;;;;;;;16.05;8.70;;;;;;;7.07;100.00;99128.53;6119094;28;20040;-73
2023/10/19 09:11:35;;;;;;;17.50;8.27;;;;;;;7.05;100.00;99133.16;6127040;28;20040;-75
2023/10/19 09:14:33;;;;;;;15.73;7.80;;;;;;;7.03;100.00;99114.03;6118383;28;20028;-72
2023/10/19 09:17:29;;;;;;;16.40;8.63;;;;;;;7.01;100.00;99113.34;6125557;28;20471;-73
2023/10/19 09:20:27;;;;;;;15.90;8.13;;;;;;;7.12;100.00;99120.16;6100906;28;20032;-73
2023/10/19 09:23:28;;;;;;;14.55;7.43;;;;;;;7.19;100.00;99136.94;6102899;28;20082;-74
2023/10/19 09:26:24;;;;;;;17.52;8.52;;;;;;;7.20;100.00;99118.31;6124075;28;20033;-75
2023/10/19 09:29:20;;;;;;;16.63;7.90;;;;;;;7.20;100.00;99112.25;6118260;28;20040;-76
2023/10/19 09:32:16;;;;;;;15.15;6.72;;;;;;;7.30;100.00;99114.72;6118493;28;20074;-74
2023/10/19 09:35:15;;;;;;;13.13;7.15;;;;;;;7.29;100.00;99126.25;6122691;28;20024;-75
2023/10/19 09:38:11;;;;;;;13.30;6.85;;;;;;;7.32;100.00;99112.72;6119334;28;20047;-74
2023/10/19 09:41:08;;;;;;;15.73;7.13;;;;;;;7.30;100.00;99106.81;6116436;28;20108;-72
2023/10/19 09:44:09;;;;;;;12.32;6.32;;;;;;;7.37;100.00;99113.06;6119542;28;20036;-74
2023/10/19 09:47:13;;;;;;;13.50;6.63;;;;;;;7.45;100.00;99115.69;6123572;28;20542;-75
2023/10/19 09:50:10;;;;;;;11.20;6.28;;;;;;;7.38;100.00;99107.63;6123502;28;20021;-71
2023/10/19 09:53:07;;;;;;;14.20;6.55;;;;;;;7.44;100.00;99103.50;6127501;28;20036;-75
2023/10/19 09:56:06;;;;;;;12.35;6.15;;;;;;;7.42;100.00;99103.66;6121554;28;20052;-74
2023/10/19 09:59:19;;;;;;;9.70;5.97;;;;;;;7.47;100.00;99117.19;6114704;28;20108;-73
2023/10/19 10:02:17;;;;;;;13.32;6.75;;;;;;;7.50;100.00;99103.66;6103761;28;20054;-74
2023/10/19 10:05:37;;;;;;;15.15;7.75;;;;;;;7.46;100.00;99112.91;6128467;28;20029;-73
2023/10/19 10:08:33;;;;;;;52.22;22.42;;;;;;;7.42;100.00;99081.78;6125494;28;20094;-72
2023/10/19 10:11:28;;;;;;;14.88;9.10;;;;;;;7.56;100.00;99102.16;6109891;28;20507;-72
2023/10/19 10:14:28;;;;;;;15.70;8.80;;;;;;;7.52;100.00;99119.34;6127430;28;20456;-72
2023/10/19 10:17:26;;;;;;;14.38;8.85;;;;;;;7.55;100.00;99109.28;6109099;28;20443;-72
2023/10/19 10:20:22;;;;;;;12.85;6.57;;;;;;;7.69;100.00;99121.78;6103525;28;20032;-71
2023/10/19 10:23:21;;;;;;;14.02;7.03;;;;;;;7.61;100.00;99092.78;6120408;28;20050;-73
2023/10/19 10:26:24;;;;;;;12.10;6.55;;;;;;;7.70;100.00;99090.94;6122691;28;20480;-72
2023/10/19 10:29:23;;;;;;;15.35;8.85;;;;;;;7.81;100.00;99090.59;6121553;28;20090;-73
2023/10/19 10:32:42;;;;;;;14.15;8.68;;;;;;;7.91;100.00;99096.50;6122505;28;20032;-73
2023/10/19 10:35:41;;;;;;;16.83;7.93;;;;;;;8.08;100.00;99082.28;6118090;28;20111;-74
2023/10/19 10:38:36;;;;;;;14.70;6.38;;;;;;;7.94;100.00;99064.50;6127660;28;20044;-72
2023/10/19 10:41:31;;;;;;;11.50;5.70;;;;;;;8.06;100.00;99079.00;6128187;28;20261;-72
2023/10/19 10:44:48;;;;;;;12.68;6.68;;;;;;;8.05;100.00;99061.50;6128629;28;20262;-70
2023/10/19 10:47:44;;;;;;;13.85;6.95;;;;;;;8.28;100.00;99064.25;6123331;28;20044;-71
2023/10/19 10:50:41;;;;;;;12.55;7.30;;;;;;;8.25;100.00;99072.47;6104824;28;20048;-70
2023/10/19 10:53:41;;;;;;;18.02;8.90;;;;;;;8.33;100.00;99062.75;6125324;28;20445;-73
2023/10/19 10:56:40;;;;;;;17.17;8.50;;;;;;;8.26;100.00;99068.84;6123396;28;20123;-71
2023/10/19 10:59:35;;;;;;;24.50;9.20;;;;;;;8.33;100.00;99069.84;6121585;28;20105;-71
2023/10/19 11:02:32;;;;;;;12.73;6.53;;;;;;;8.37;100.00;99061.38;6126456;28;20024;-72
2023/10/19 11:05:27;;;;;;;12.30;6.50;;;;;;;8.38;100.00;99055.13;6110818;28;20036;-69
2023/10/19 11:08:24;;;;;;;10.00;5.93;;;;;;;8.45;100.00;99043.88;6130814;28;20079;-70
2023/10/19 11:11:20;;;;;;;11.55;6.25;;;;;;;8.57;100.00;99051.22;6123680;28;20645;-71
2023/10/19 11:14:15;;;;;;;12.48;6.93;;;;;;;8.53;100.00;99059.66;6124872;28;20040;-70
2023/10/19 11:17:15;;;;;;;15.83;7.77;;;;;;;8.46;100.00;99048.97;6126210;28;20031;-71
2023/10/19 11:20:20;;;;;;;12.48;7.30;;;;;;;8.44;100.00;99050.13;6121615;28;20348;-70
2023/10/19 11:23:16;;;;;;;13.25;7.53;;;;;;;8.32;100.00;99042.59;6119233;28;20025;-72
2023/10/19 11:26:12;;;;;;;14.30;7.33;;;;;;;8.44;100.00;99039.56;6122871;28;20038;-71
2023/10/19 11:29:09;;;;;;;17.88;10.90;;;;;;;8.39;100.00;99040.09;6124196;28;20033;-72
2023/10/19 11:32:05;;;;;;;14.93;8.13;;;;;;;8.41;100.00;99045.19;6122297;28;20115;-70
2023/10/19 11:35:01;;;;;;;15.30;7.97;;;;;;;8.49;100.00;99053.06;6124446;28;20376;-71
2023/10/19 11:37:58;;;;;;;17.50;7.27;;;;;;;8.41;100.00;99034.63;6133057;28;20036;-71
2023/10/19 11:40:54;;;;;;;14.93;8.65;;;;;;;8.37;100.00;99040.25;6123814;28;20154;-70
2023/10/19 11:43:49;;;;;;;16.67;7.23;;;;;;;8.50;100.00;99034.44;6121404;28;20033;-70
2023/10/19 11:46:45;;;;;;;19.17;8.45;;;;;;;8.62;100.00;99033.00;6125663;28;20028;-72
2023/10/19 11:49:40;;;;;;;13.13;7.80;;;;;;;8.55;100.00;99029.44;6134664;28;20036;-70
2023/10/19 11:52:35;;;;;;;14.57;8.40;;;;;;;8.57;100.00;99040.66;6127002;28;20032;-71
2023/10/19 11:55:31;;;;;;;15.40;7.73;;;;;;;8.50;100.00;99028.31;6121114;28;20035;-72
2023/10/19 11:58:26;;;;;;;14.67;8.03;;;;;;;8.54;100.00;99032.22;6128635;28;20040;-71
2023/10/19 12:01:22;;;;;;;14.82;7.80;;;;;;;8.49;100.00;99029.28;6120053;28;20048;-70
2023/10/19 12:04:17;;;;;;;18.00;9.53;;;;;;;8.32;100.00;99025.91;6123957;28;20529;-71
2023/10/19 12:07:13;;;;;;;15.93;7.85;;;;;;;8.31;100.00;99038.31;6127003;28;20036;-71
2023/10/19 12:10:09;;;;;;;16.07;8.33;;;;;;;8.29;100.00;99042.09;6119856;28;20035;-70
2023/10/19 12:13:09;;;;;;;18.13;8.98;;;;;;;8.24;100.00;99039.13;6103269;28;20033;-71
2023/10/19 12:16:04;;;;;;;17.02;7.78;;;;;;;8.26;100.00;99037.97;6091370;28;20048;-70
2023/10/19 12:18:59;;;;;;;21.98;8.63;;;;;;;8.28;100.00;99041.31;6114282;28;20068;-71
2023/10/19 12:21:55;;;;;;;18.30;7.97;;;;;;;8.24;100.00;99036.50;6122315;28;20078;-71
2023/10/19 12:24:51;;;;;;;20.33;9.98;;;;;;;8.32;100.00;99047.03;6128721;28;20108;-70
2023/10/19 12:27:46;;;;;;;20.27;8.52;;;;;;;8.36;100.00;99046.56;6130883;28;20089;-69
2023/10/19 12:30:42;;;;;;;19.93;9.83;;;;;;;8.23;100.00;99034.88;6129584;28;20028;-71
2023/10/19 12:33:38;;;;;;;33.17;14.00;;;;;;;8.31;100.00;99056.81;6125037;28;20665;-70
2023/10/19 12:36:35;;;;;;;29.30;11.45;;;;;;;8.25;100.00;99036.34;6129115;28;20062;-70
2023/10/19 12:39:38;;;;;;;20.55;9.07;;;;;;;8.35;100.00;99044.06;6121542;28;20120;-69
2023/10/19 12:42:33;;;;;;;21.48;9.35;;;;;;;8.25;100.00;99024.94;6117112;28;20454;-70
2023/10/19 12:45:28;;;;;;;25.57;11.13;;;;;;;8.29;100.00;99027.09;6123537;28;20039;-71
2023/10/19 12:48:33;;;;;;;15.57;7.83;;;;;;;8.22;100.00;99023.47;6119649;28;20032;-71
2023/10/19 12:51:29;;;;;;;21.08;8.65;;;;;;;8.20;100.00;99025.47;6102587;28;20104;-70
2023/10/19 12:54:26;;;;;;;21.75;10.95;;;;;;;8.17;100.00;99012.63;6120608;28;20093;-70
2023/10/19 12:57:23;;;;;;;22.60;10.40;;;;;;;8.25;100.00;99025.78;6119370;28;20421;-70
2023/10/19 13:00:35;;;;;;;21.73;10.30;;;;;;;8.25;100.00;99017.03;6115528;28;20032;-70
2023/10/19 13:03:32;;;;;;;20.60;11.00;;;;;;;8.30;100.00;99027.91;6117823;28;20058;-71
2023/10/19 13:06:29;;;;;;;20.77;10.50;;;;;;;8.18;100.00;99008.16;6116593;28;20035;-70
2023/10/19 13:09:30;;;;;;;23.48;11.45;;;;;;;8.21;100.00;99016.53;6113324;28;20107;-69
2023/10/19 13:12:26;;;;;;;26.55;12.18;;;;;;;8.15;100.00;99019.84;6120667;28;20036;-71
2023/10/19 13:15:21;;;;;;;31.60;11.63;;;;;;;8.03;100.00;98989.56;6120183;28;20490;-72
2023/10/19 13:18:21;;;;;;;19.23;9.43;;;;;;;8.14;100.00;99015.59;6118691;28;20024;-71
2023/10/19 13:21:21;;;;;;;25.55;11.75;;;;;;;8.12;100.00;99012.31;6125627;28;20033;-71
2023/10/19 13:24:20;;;;;;;29.02;11.55;;;;;;;8.15;100.00;99006.66;6122634;28;20028;-69
2023/10/19 13:27:15;;;;;;;24.27;11.00;;;;;;;8.14;100.00;99007.69;6130376;28;20033;-71
2023/10/19 13:30:14;;;;;;;25.37;12.50;;;;;;;7.95;100.00;98979.06;6128358;28;20085;-69
2023/10/19 13:33:10;;;;;;;27.38;13.05;;;;;;;8.08;100.00;99002.25;6124425;28;20020;-71
2023/10/19 13:36:06;;;;;;;29.48;12.65;;;;;;;8.12;100.00;98999.13;6112995;28;20119;-70
2023/10/19 13:39:03;;;;;;;28.63;12.13;;;;;;;8.20;100.00;99014.91;6123369;28;20490;-70
2023/10/19 13:41:58;;;;;;;29.98;11.73;;;;;;;8.06;100.00;99004.25;6125111;28;20024;-71
2023/10/19 13:44:53;;;;;;;36.83;15.70;;;;;;;8.02;100.00;99001.13;6124294;28;20066;-69
2023/10/19 13:47:49;;;;;;;29.73;12.17;;;;;;;8.00;100.00;99000.47;6124605;28;20025;-70
2023/10/19 13:50:48;;;;;;;27.53;11.93;;;;;;;8.04;100.00;99009.72;6126517;28;20281;-70
2023/10/19 13:53:44;;;;;;;30.95;12.60;;;;;;;8.02;100.00;99013.50;6122585;28;20252;-69
2023/10/19 13:56:40;;;;;;;31.05;13.10;;;;;;;8.09;100.00;99017.94;6124733;28;20039;-69
2023/10/19 13:59:36;;;;;;;27.37;12.00;;;;;;;8.09;100.00;99014.47;6124083;28;20087;-71